Time;durP1;ratioP1;P1;durP2;ratioP2;P2;SDS_P1;SDS_P2;PMS_P1;PMS_P2;Temp;Humidity;BMP_temperature;BMP_pressure;BME280_temperature;BME280_humidity;BME280_pressure;Samples;Min_cycle;Max_cycle;Signal;HPM_P1;HPM_P2
2023/05/29 00:33:53;;;;;;;;;;;;;;;;;;;;;
2023/05/29 02:31:53;;;;;;;13.05;6.57;;;;;;;;;;6208740;23;20075;-88
2023/05/29 02:44:23;;;;;;;12.45;8.77;;;;;;;;;;6032832;23;20013;-87
2023/05/29 02:47:11;;;;;;;10.55;6.97;;;;;;;;;;6004667;23;20524;-87
2023/05/29 02:55:47;;;;;;;;;;;;;;;;;;;;;
2023/05/29 04:40:18;;;;;;;11.38;5.90;;;;;;;;;;6180366;22;20063;-87
2023/05/29 06:10:36;;;;;;;9.95;5.25;;;;;;;;;;6210135;23;20059;-81
2023/05/29 06:13:11;;;;;;;8.98;4.85;;;;;;;;;;6209895;23;20605;-83
2023/05/29 06:15:37;;;;;;;12.13;5.45;;;;;;;;;;6185421;23;20011;-82
2023/05/29 06:18:54;;;;;;;;;;;;;;;;;;;;;
2023/05/29 06:24:23;;;;;;;10.05;5.47;;;;;;;;;;6192372;23;20013;-83
2023/05/29 06:26:52;;;;;;;8.88;5.10;;;;;;;;;;6151937;23;20066;-84
2023/05/29 06:29:20;;;;;;;7.45;4.75;;;;;;;;;;6212475;23;20058;-85
2023/05/29 06:31:46;;;;;;;7.85;4.88;;;;;;;;;;6185622;23;20048;-83
2023/05/29 06:34:17;;;;;;;9.32;4.35;;;;;;;;;;6184955;23;20373;-84
2023/05/29 06:36:43;;;;;;;13.75;5.07;;;;;;;;;;6184632;23;20012;-84
2023/05/29 06:39:10;;;;;;;8.52;4.60;;;;;;;;;;6185458;23;20084;-83
2023/05/29 06:41:36;;;;;;;8.70;4.57;;;;;;;;;;6212748;23;20005;-84
2023/05/29 06:44:02;;;;;;;9.77;4.82;;;;;;;;;;6212976;23;20039;-88
2023/05/29 06:46:28;;;;;;;11.07;5.05;;;;;;;;;;6185571;23;20104;-86
2023/05/29 06:48:54;;;;;;;8.40;4.55;;;;;;;;;;6213075;23;20379;-83
2023/05/29 06:51:26;;;;;;;11.30;4.97;;;;;;;;;;6185079;23;20009;-86
2023/05/29 06:53:52;;;;;;;9.50;5.05;;;;;;;;;;6167163;23;20032;-84
2023/05/29 06:56:18;;;;;;;10.85;5.63;;;;;;;;;;6155371;23;20009;-83
2023/05/29 06:58:45;;;;;;;9.25;5.13;;;;;;;;;;6181998;23;20323;-83
2023/05/29 07:01:14;;;;;;;11.98;5.68;;;;;;;;;;6155548;23;20064;-84
2023/05/29 07:03:46;;;;;;;9.32;4.95;;;;;;;;;;6155244;23;20700;-86
2023/05/29 07:06:15;;;;;;;10.73;5.53;;;;;;;;;;6197476;23;20025;-88
2023/05/29 07:08:41;;;;;;;10.82;5.80;;;;;;;;;;6186331;23;20035;-86
2023/05/29 07:11:07;;;;;;;8.20;5.07;;;;;;;;;;6186143;23;20025;-84
2023/05/29 07:13:38;;;;;;;11.35;5.68;;;;;;;;;;6185550;23;20502;-86
2023/05/29 07:16:08;;;;;;;10.60;5.63;;;;;;;;;;6185053;23;20014;-83
2023/05/29 07:18:34;;;;;;;11.68;5.50;;;;;;;;;;6212313;23;20015;-84
2023/05/29 07:21:00;;;;;;;13.30;5.60;;;;;;;;;;6211641;23;20076;-84
2023/05/29 07:23:26;;;;;;;8.90;5.20;;;;;;;;;;6211948;23;20016;-84
2023/05/29 07:25:52;;;;;;;8.90;5.20;;;;;;;;;;6212030;23;20083;-84
2023/05/29 07:28:18;;;;;;;12.80;5.90;;;;;;;;;;6185129;23;20040;-84
2023/05/29 07:30:44;;;;;;;11.07;5.78;;;;;;;;;;6212277;23;20000;-84
2023/05/29 07:33:13;;;;;;;13.27;5.38;;;;;;;;;;6185362;23;20013;-85
2023/05/29 07:35:39;;;;;;;12.75;5.82;;;;;;;;;;6185524;23;20074;-83
2023/05/29 07:38:05;;;;;;;8.45;5.10;;;;;;;;;;6212352;23;20012;-84
2023/05/29 07:40:31;;;;;;;9.48;4.72;;;;;;;;;;6211962;23;20900;-83
2023/05/29 07:42:57;;;;;;;10.25;5.85;;;;;;;;;;6212497;23;20091;-85
2023/05/29 07:45:23;;;;;;;9.23;5.32;;;;;;;;;;6185233;23;20580;-83
2023/05/29 07:47:49;;;;;;;11.55;5.80;;;;;;;;;;6212117;23;20020;-83
2023/05/29 07:50:15;;;;;;;10.25;5.18;;;;;;;;;;6211706;23;20000;-84
2023/05/29 07:52:42;;;;;;;17.83;5.72;;;;;;;;;;6211910;23;20421;-84
2023/05/29 07:55:08;;;;;;;11.77;6.03;;;;;;;;;;6211630;23;20558;-85
2023/05/29 07:57:34;;;;;;;10.30;5.55;;;;;;;;;;6212338;23;20062;-87
2023/05/29 08:00:08;;;;;;;9.02;5.50;;;;;;;;;;6211539;23;20009;-87
2023/05/29 08:02:34;;;;;;;8.00;4.90;;;;;;;;;;6185251;23;20044;-85
2023/05/29 08:05:00;;;;;;;8.98;4.90;;;;;;;;;;6211493;23;20012;-85
2023/05/29 08:07:28;;;;;;;10.25;5.40;;;;;;;;;;6184015;23;20020;-83
2023/05/29 08:09:57;;;;;;;8.32;5.18;;;;;;;;;;6184546;23;20004;-87
2023/05/29 08:12:23;;;;;;;11.50;4.88;;;;;;;;;;6184885;23;20059;-84
2023/05/29 08:14:49;;;;;;;11.40;5.38;;;;;;;;;;6184113;23;20008;-85
2023/05/29 08:17:15;;;;;;;11.82;4.65;;;;;;;;;;6185307;23;20013;-85
2023/05/29 08:19:41;;;;;;;9.70;5.25;;;;;;;;;;6185396;23;20087;-84
2023/05/29 08:22:07;;;;;;;11.13;5.45;;;;;;;;;;6211836;23;20024;-83
2023/05/29 08:24:33;;;;;;;7.50;4.57;;;;;;;;;;6212084;23;20818;-86
2023/05/29 08:27:00;;;;;;;10.98;5.45;;;;;;;;;;6184693;23;20024;-85
2023/05/29 08:29:26;;;;;;;8.68;5.50;;;;;;;;;;6212298;23;20075;-83
2023/05/29 08:31:52;;;;;;;8.48;4.95;;;;;;;;;;6211543;23;20449;-84
2023/05/29 08:34:18;;;;;;;9.77;4.35;;;;;;;;;;6211686;23;20074;-84
2023/05/29 08:36:45;;;;;;;9.80;4.65;;;;;;;;;;6210953;23;20492;-83
2023/05/29 08:39:11;;;;;;;8.23;4.82;;;;;;;;;;6211289;23;20039;-85
2023/05/29 08:41:46;;;;;;;11.73;5.28;;;;;;;;;;6184696;23;20017;-85
2023/05/29 08:44:14;;;;;;;8.15;4.80;;;;;;;;;;6211185;23;20008;-89
2023/05/29 08:46:45;;;;;;;8.98;5.07;;;;;;;;;;6184454;23;20021;-88
2023/05/29 08:49:13;;;;;;;13.55;6.07;;;;;;;;;;6184244;23;20005;-87
2023/05/29 10:11:48;;;;;;;12.63;5.72;;;;;;;;;;6119667;23;20026;-85
2023/05/29 12:12:41;;;;;;;12.50;4.95;;;;;;;;;;6203286;23;20024;-88
2023/05/29 12:15:52;;;;;;;9.55;4.90;;;;;;;;;;6186167;23;20004;-87
2023/05/29 12:18:19;;;;;;;11.20;4.57;;;;;;;;;;6180830;23;20005;-87
2023/05/29 12:21:01;;;;;;;10.00;4.68;;;;;;;;;;6186153;23;20012;-86
2023/05/29 12:23:47;;;;;;;10.57;4.78;;;;;;;;;;6187401;23;20011;-86
2023/05/29 12:26:50;;;;;;;;;;;;;;;;;;;;;
2023/05/29 12:29:38;;;;;;;11.15;4.70;;;;;;;;;;6090999;23;20094;-89
2023/05/29 12:32:42;;;;;;;9.02;4.85;;;;;;;;;;6068842;23;20014;-87
2023/05/29 12:37:44;;;;;;;9.82;5.05;;;;;;;;;;6198770;22;20028;-87
2023/05/29 12:54:45;;;;;;;10.10;4.53;;;;;;;;;;6131436;23;20026;-86
2023/05/29 12:57:22;;;;;;;7.28;4.07;;;;;;;;;;6096302;23;20109;-85
2023/05/29 13:00:11;;;;;;;10.57;4.82;;;;;;;;;;6125399;23;20029;-85
2023/05/29 13:15:55;;;;;;;8.75;4.32;;;;;;;;;;6183357;23;20060;-85
2023/05/29 14:05:10;;;;;;;9.10;4.20;;;;;;;;;;6209742;22;20020;-84
2023/05/29 14:10:12;;;;;;;9.10;4.53;;;;;;;;;;6210889;23;20108;-84
2023/05/29 14:20:58;;;;;;;8.43;4.10;;;;;;;;;;6092393;23;20018;-84
2023/05/29 14:23:34;;;;;;;8.25;4.43;;;;;;;;;;6143403;23;20021;-84
2023/05/29 14:34:47;;;;;;;7.60;4.20;;;;;;;;;;6170278;23;20099;-83
2023/05/29 16:08:02;;;;;;;9.75;4.65;;;;;;;;;;6182516;22;20031;-86
2023/05/29 16:10:37;;;;;;;7.55;4.30;;;;;;;;;;6155861;23;20017;-86
2023/05/29 16:13:35;;;;;;;7.95;4.13;;;;;;;;;;6154668;23;20036;-86
2023/05/29 16:16:41;;;;;;;7.50;4.40;;;;;;;;;;6098252;22;20114;-86
2023/05/29 16:27:09;;;;;;;9.02;4.40;;;;;;;;;;6180300;23;20032;-87
2023/05/29 16:29:58;;;;;;;8.63;4.20;;;;;;;;;;6114045;22;20033;-85
2023/05/29 16:38:05;;;;;;;10.65;4.95;;;;;;;;;;6211131;23;20050;-83
2023/05/29 16:40:31;;;;;;;8.77;4.60;;;;;;;;;;6211629;23;20011;-84
2023/05/29 16:42:57;;;;;;;10.07;4.78;;;;;;;;;;6184394;23;20020;-84
2023/05/29 16:45:24;;;;;;;9.00;4.40;;;;;;;;;;6185010;23;20020;-83
2023/05/29 16:47:53;;;;;;;11.55;4.85;;;;;;;;;;6184369;23;20416;-83
2023/05/29 16:50:20;;;;;;;7.60;4.38;;;;;;;;;;6184770;23;20019;-83
2023/05/29 16:52:46;;;;;;;8.25;4.65;;;;;;;;;;6184805;23;20024;-82
2023/05/29 16:59:01;;;;;;;;;;;;;;;;;;;;;
2023/05/29 17:01:27;;;;;;;;;;;;;;;;;;;;;
2023/05/29 17:03:55;;;;;;;9.27;4.38;;;;;;;;;;6099311;23;20930;-85
2023/05/29 17:25:01;;;;;;;8.90;5.13;;;;;;;;;;6180056;23;20599;-85
2023/05/29 17:36:10;;;;;;;10.48;5.65;;;;;;;;;;6150396;23;20036;-84
2023/05/29 17:38:37;;;;;;;12.02;5.82;;;;;;;;;;6151889;23;20085;-85
2023/05/29 17:41:03;;;;;;;15.27;7.35;;;;;;;;;;6126907;23;20014;-84
2023/05/29 17:43:49;;;;;;;11.35;6.35;;;;;;;;;;6127315;23;20044;-85
2023/05/29 17:46:18;;;;;;;10.02;5.15;;;;;;;;;;6126269;23;20508;-84
2023/05/29 17:48:44;;;;;;;14.38;5.35;;;;;;;;;;6153456;23;20311;-84
2023/05/29 17:51:10;;;;;;;9.80;5.85;;;;;;;;;;6153079;23;20009;-85
2023/05/29 17:53:36;;;;;;;9.70;4.68;;;;;;;;;;6126707;23;20425;-85
2023/05/29 17:56:02;;;;;;;13.57;6.63;;;;;;;;;;6125823;23;20049;-85
2023/05/29 17:58:28;;;;;;;7.57;4.55;;;;;;;;;;6126650;23;20035;-84
2023/05/29 18:00:56;;;;;;;10.23;5.95;;;;;;;;;;6126551;23;20050;-85
2023/05/29 18:03:22;;;;;;;11.02;5.00;;;;;;;;;;6127557;23;20060;-84
2023/05/29 18:05:48;;;;;;;14.80;6.88;;;;;;;;;;6152458;23;20049;-84
2023/05/29 18:08:14;;;;;;;10.10;5.22;;;;;;;;;;6153439;23;20001;-84
2023/05/29 18:10:40;;;;;;;9.73;4.65;;;;;;;;;;6126802;23;20017;-84
2023/05/29 18:13:06;;;;;;;14.88;5.05;;;;;;;;;;6127153;23;20011;-83
2023/05/29 18:15:32;;;;;;;11.00;4.80;;;;;;;;;;6126683;23;20084;-84
2023/05/29 18:17:58;;;;;;;9.52;4.75;;;;;;;;;;6126351;23;20036;-84
2023/05/29 18:20:28;;;;;;;10.35;5.20;;;;;;;;;;6126413;23;20433;-84
2023/05/29 18:22:54;;;;;;;9.18;5.43;;;;;;;;;;6153468;23;20006;-84
2023/05/29 18:25:20;;;;;;;11.45;8.27;;;;;;;;;;6126640;23;20021;-85
2023/05/29 18:27:46;;;;;;;18.25;15.98;;;;;;;;;;6126529;23;20100;-84
2023/05/29 18:30:13;;;;;;;156.60;141.00;;;;;;;;;;6126474;23;20739;-85
2023/05/29 18:32:39;;;;;;;188.32;167.25;;;;;;;;;;6174380;23;20017;-83
2023/05/29 18:35:05;;;;;;;125.72;103.50;;;;;;;;;;6156096;23;20016;-83
2023/05/29 18:37:31;;;;;;;119.13;93.07;;;;;;;;;;6156240;23;20459;-83
2023/05/29 18:39:57;;;;;;;25.10;18.15;;;;;;;;;;6155527;23;20013;-84
2023/05/29 18:42:24;;;;;;;15.52;6.80;;;;;;;;;;6181985;23;20039;-84
2023/05/29 18:44:50;;;;;;;10.30;4.60;;;;;;;;;;6182000;23;20083;-84
2023/05/29 18:47:16;;;;;;;12.18;4.95;;;;;;;;;;6155792;23;20075;-84
2023/05/29 18:49:42;;;;;;;9.10;4.85;;;;;;;;;;6181919;23;20013;-85
2023/05/29 18:52:08;;;;;;;15.55;5.15;;;;;;;;;;6155901;23;20013;-85
2023/05/29 18:54:35;;;;;;;11.95;5.35;;;;;;;;;;6155525;23;20012;-84
2023/05/29 18:57:02;;;;;;;11.93;6.10;;;;;;;;;;6182410;23;20068;-85
2023/05/29 18:59:28;;;;;;;12.23;4.78;;;;;;;;;;6155052;23;20016;-85
2023/05/29 19:01:54;;;;;;;10.95;5.10;;;;;;;;;;6155966;23;20024;-85
2023/05/29 19:04:20;;;;;;;8.30;4.38;;;;;;;;;;6155779;23;20020;-85
2023/05/29 19:06:46;;;;;;;9.55;5.18;;;;;;;;;;6156056;23;20013;-87
2023/05/29 19:09:16;;;;;;;10.73;4.65;;;;;;;;;;6156121;23;20092;-88
2023/05/29 19:20:47;;;;;;;14.95;6.22;;;;;;;;;;6186441;23;20036;-86
2023/05/29 19:33:09;;;;;;;9.40;5.30;;;;;;;;;;6079243;23;20030;-86
2023/05/29 20:27:02;;;;;;;9.77;5.47;;;;;;;;;;6207748;23;20023;-84
2023/05/29 20:29:28;;;;;;;11.82;4.80;;;;;;;;;;6211153;23;20019;-84
2023/05/29 20:31:59;;;;;;;9.00;4.72;;;;;;;;;;6183546;23;20013;-84
2023/05/29 20:34:44;;;;;;;;;;;;;;;;;;;;;
2023/05/29 20:37:52;;;;;;;12.75;5.20;;;;;;;;;;6210693;23;20095;-85
2023/05/29 20:43:24;;;;;;;11.57;5.57;;;;;;;;;;6209941;23;20063;-83
2023/05/29 20:45:56;;;;;;;9.57;5.38;;;;;;;;;;6183221;23;20017;-85
2023/05/29 20:48:33;;;;;;;10.02;5.00;;;;;;;;;;6182722;23;20031;-83
2023/05/29 20:51:08;;;;;;;9.15;4.97;;;;;;;;;;6184427;23;20004;-84
2023/05/29 20:53:36;;;;;;;12.57;4.88;;;;;;;;;;6183379;23;20428;-84
